Time;durP1;ratioP1;P1;durP2;ratioP2;P2;SDS_P1;SDS_P2;PMS_P1;PMS_P2;Temp;Humidity;BMP_temperature;BMP_pressure;BME280_temperature;BME280_humidity;BME280_pressure;Samples;Min_cycle;Max_cycle;Signal;HPM_P1;HPM_P2
2023/07/02 00:01:43;;;;;;;0.10;0.10;;;;;;;19.47;62.25;100797.34;5103019;28;20032;-80
2023/07/02 00:04:10;;;;;;;1.55;1.45;;;;;;;19.37;61.59;100795.19;5099562;28;20032;-80
2023/07/02 00:06:40;;;;;;;0.90;0.90;;;;;;;19.35;61.58;100797.13;5090363;28;20036;-79
2023/07/02 00:09:08;;;;;;;0.95;0.95;;;;;;;19.30;61.02;100795.63;5101270;28;20057;-78
2023/07/02 00:11:35;;;;;;;0.10;0.10;;;;;;;19.26;61.00;100800.31;5094235;28;20024;-80
2023/07/02 00:14:01;;;;;;;0.00;0.00;;;;;;;19.20;60.38;100798.84;5098966;28;20038;-80
2023/07/02 00:16:27;;;;;;;0.10;0.10;;;;;;;19.13;60.26;100796.59;5094868;28;20700;-80
2023/07/02 00:18:53;;;;;;;0.03;0.03;;;;;;;19.04;59.35;100788.13;5091261;28;20020;-80
2023/07/02 00:21:20;;;;;;;0.03;0.03;;;;;;;18.95;58.57;100793.13;5093362;28;20055;-80
2023/07/02 00:23:47;;;;;;;0.10;0.10;;;;;;;18.87;57.89;100791.72;5093921;28;20024;-79
2023/07/02 00:26:13;;;;;;;0.20;0.20;;;;;;;18.87;57.98;100797.06;5096195;28;20042;-80
2023/07/02 00:28:39;;;;;;;1.88;1.75;;;;;;;18.87;59.12;100796.22;5096632;28;20069;-79
2023/07/02 00:31:05;;;;;;;0.03;0.03;;;;;;;18.80;58.26;100795.69;5094194;28;20043;-79
2023/07/02 00:33:32;;;;;;;0.20;0.20;;;;;;;18.74;57.64;100804.06;5097015;28;20032;-79
2023/07/02 00:36:00;;;;;;;0.30;0.30;;;;;;;18.72;58.18;100798.78;5095713;28;20053;-78
2023/07/02 00:38:26;;;;;;;0.10;0.10;;;;;;;18.72;58.61;100793.41;5104532;28;20537;-79
2023/07/02 00:40:52;;;;;;;0.20;0.20;;;;;;;18.67;58.16;100806.22;5099390;28;20084;-79
2023/07/02 00:43:19;;;;;;;0.10;0.10;;;;;;;18.65;58.84;100800.06;5098629;28;20023;-79
2023/07/02 00:45:45;;;;;;;0.10;0.10;;;;;;;18.62;58.56;100796.69;5098225;28;20028;-79
2023/07/02 00:48:12;;;;;;;0.20;0.13;;;;;;;18.60;58.91;100804.81;5097009;28;20055;-79
2023/07/02 00:50:40;;;;;;;0.30;0.30;;;;;;;18.55;58.14;100804.22;5098006;28;20024;-79
2023/07/02 00:53:06;;;;;;;0.10;0.10;;;;;;;18.53;58.78;100804.31;5096601;28;20020;-79
2023/07/02 00:55:32;;;;;;;0.10;0.10;;;;;;;18.51;58.27;100810.72;5095989;28;20032;-79
2023/07/02 00:57:58;;;;;;;0.08;0.08;;;;;;;18.53;58.66;100806.09;5097022;28;20036;-79
2023/07/02 01:00:24;;;;;;;1.13;1.02;;;;;;;18.47;57.93;100814.47;5098149;28;20052;-79
2023/07/02 01:02:58;;;;;;;0.20;0.20;;;;;;;18.52;57.88;100817.81;5102415;28;20031;-79
2023/07/02 01:05:32;;;;;;;0.35;0.35;;;;;;;18.46;57.79;100826.19;5090400;28;21046;-77
2023/07/02 01:07:58;;;;;;;0.10;0.10;;;;;;;18.43;57.74;100816.50;5097824;28;20021;-80
2023/07/02 01:10:24;;;;;;;0.15;0.15;;;;;;;18.37;57.02;100812.31;5115470;28;20040;-79
2023/07/02 01:12:51;;;;;;;0.00;0.00;;;;;;;18.41;57.22;100815.69;5103906;28;20069;-79
2023/07/02 01:15:17;;;;;;;0.38;0.38;;;;;;;18.41;56.60;100821.91;5092376;28;20059;-79
2023/07/02 01:17:44;;;;;;;1.20;1.20;;;;;;;18.47;57.30;100826.09;5095638;28;20035;-79
2023/07/02 01:20:11;;;;;;;0.10;0.10;;;;;;;18.44;56.10;100820.88;5105640;28;20169;-79
2023/07/02 01:22:38;;;;;;;0.10;0.10;;;;;;;18.31;55.67;100834.09;5094743;28;20391;-79
2023/07/02 01:25:08;;;;;;;0.10;0.10;;;;;;;18.45;56.69;100827.13;5103346;28;20483;-79
2023/07/02 01:27:35;;;;;;;0.00;0.00;;;;;;;18.30;55.09;100816.25;5095321;28;20032;-79
2023/07/02 01:30:02;;;;;;;0.10;0.10;;;;;;;18.36;55.43;100823.97;5095056;28;20146;-79
2023/07/02 01:32:28;;;;;;;0.10;0.10;;;;;;;18.31;54.71;100820.69;5097073;28;20036;-80
2023/07/02 01:34:55;;;;;;;0.63;0.63;;;;;;;18.34;54.50;100819.66;5093193;28;20028;-79
2023/07/02 01:37:21;;;;;;;0.10;0.10;;;;;;;18.29;53.68;100827.94;5097714;28;20078;-79
2023/07/02 01:39:47;;;;;;;0.65;0.65;;;;;;;18.35;53.90;100818.69;5089117;28;20024;-79
2023/07/02 01:42:16;;;;;;;0.10;0.10;;;;;;;18.34;54.31;100825.84;5088137;28;20028;-78
2023/07/02 01:44:43;;;;;;;0.20;0.20;;;;;;;18.34;54.20;100822.31;5088261;28;20028;-78
2023/07/02 01:47:09;;;;;;;0.10;0.10;;;;;;;18.25;53.06;100821.00;5088343;28;20480;-76
2023/07/02 01:49:37;;;;;;;0.30;0.30;;;;;;;18.25;53.91;100831.72;5092990;28;20032;-78
2023/07/02 01:52:04;;;;;;;0.10;0.10;;;;;;;18.21;52.40;100822.13;5088086;28;20058;-79
2023/07/02 01:54:31;;;;;;;6.93;2.05;;;;;;;18.16;52.72;100821.50;5082449;28;20056;-78
2023/07/02 01:56:58;;;;;;;1.27;0.82;;;;;;;18.13;51.91;100821.63;5082122;28;20115;-79
2023/07/02 01:59:24;;;;;;;1.10;1.00;;;;;;;18.13;52.33;100821.63;5085135;28;20032;-79
2023/07/02 02:01:51;;;;;;;0.00;0.00;;;;;;;18.05;51.33;100822.03;5083384;28;20025;-78
2023/07/02 02:04:18;;;;;;;0.10;0.10;;;;;;;18.03;50.96;100822.13;5083987;28;20431;-79
2023/07/02 02:06:44;;;;;;;0.10;0.10;;;;;;;18.00;50.93;100821.41;5086276;28;20028;-78
2023/07/02 02:09:11;;;;;;;0.63;0.63;;;;;;;18.04;51.73;100817.63;5081936;28;20058;-80
2023/07/02 02:11:41;;;;;;;8.93;0.95;;;;;;;18.04;51.70;100818.47;5083289;28;20024;-79
2023/07/02 02:14:07;;;;;;;0.10;0.10;;;;;;;17.98;51.43;100829.53;5084721;28;20070;-79
2023/07/02 02:16:34;;;;;;;0.25;0.25;;;;;;;17.95;51.90;100833.22;5085232;28;20013;-78
2023/07/02 02:19:00;;;;;;;0.10;0.10;;;;;;;17.89;51.64;100838.88;5082529;28;20089;-77
2023/07/02 02:21:27;;;;;;;0.65;0.65;;;;;;;17.90;52.49;100847.78;5083904;28;20024;-79
2023/07/02 02:23:53;;;;;;;0.10;0.10;;;;;;;17.83;52.65;100839.19;5084434;28;20051;-80
2023/07/02 02:26:21;;;;;;;0.10;0.10;;;;;;;17.78;52.49;100839.44;5083641;28;20020;-79
2023/07/02 02:28:48;;;;;;;0.35;0.35;;;;;;;17.76;53.06;100846.66;5084042;28;20046;-78
2023/07/02 02:31:15;;;;;;;1.20;1.20;;;;;;;17.68;52.43;100856.88;5084925;28;20395;-79
2023/07/02 02:33:41;;;;;;;0.45;0.45;;;;;;;17.69;52.67;100855.09;5085672;28;20111;-79
2023/07/02 02:36:07;;;;;;;0.55;0.32;;;;;;;17.69;52.69;100855.94;5083638;28;20036;-79
2023/07/02 02:38:34;;;;;;;0.52;0.52;;;;;;;17.65;52.63;100856.19;5082975;28;20082;-77
2023/07/02 02:41:02;;;;;;;0.45;0.45;;;;;;;17.65;52.81;100858.88;5084051;28;20399;-79
2023/07/02 02:43:28;;;;;;;1.58;1.50;;;;;;;17.70;53.30;100860.38;5087648;28;20060;-78
2023/07/02 02:45:55;;;;;;;0.15;0.15;;;;;;;17.68;53.39;100859.56;5088542;28;20048;-78
2023/07/02 02:48:23;;;;;;;0.90;0.90;;;;;;;17.63;53.06;100866.97;5088594;28;20043;-80
2023/07/02 02:50:49;;;;;;;0.10;0.10;;;;;;;17.66;53.52;100861.47;5090225;28;20028;-77
2023/07/02 02:53:15;;;;;;;0.15;0.15;;;;;;;17.63;53.47;100870.53;5088676;28;20028;-79
2023/07/02 02:55:41;;;;;;;0.10;0.10;;;;;;;17.58;53.55;100869.91;5098080;28;20046;-79
2023/07/02 02:58:07;;;;;;;0.10;0.10;;;;;;;17.57;53.68;100867.28;5089950;28;20090;-79
2023/07/02 03:00:33;;;;;;;0.10;0.10;;;;;;;17.53;53.58;100876.41;5101172;28;20036;-79
2023/07/02 03:03:00;;;;;;;1.02;0.82;;;;;;;17.50;53.25;100863.19;5098027;28;20020;-79
2023/07/02 03:05:26;;;;;;;0.10;0.10;;;;;;;17.53;53.65;100871.06;5098936;28;20073;-79
2023/07/02 03:07:52;;;;;;;0.40;0.35;;;;;;;17.56;53.85;100870.91;5088484;28;20036;-79
2023/07/02 03:10:19;;;;;;;0.65;0.65;;;;;;;17.44;52.99;100873.22;5084065;28;20029;-77
2023/07/02 03:12:45;;;;;;;0.20;0.20;;;;;;;17.55;53.27;100869.19;5093226;28;20054;-78
2023/07/02 03:15:11;;;;;;;0.45;0.45;;;;;;;17.54;53.55;100878.16;5102197;28;20028;-77
2023/07/02 03:17:38;;;;;;;0.13;0.13;;;;;;;17.53;53.28;100871.06;5098372;28;20032;-79
2023/07/02 03:20:04;;;;;;;0.00;0.00;;;;;;;17.52;53.34;100880.03;5095695;28;20020;-79
2023/07/02 03:22:30;;;;;;;0.80;0.80;;;;;;;17.54;53.40;100872.78;5101430;28;20217;-79
2023/07/02 03:24:57;;;;;;;0.20;0.20;;;;;;;17.52;53.62;100875.56;5090067;28;20490;-77
2023/07/02 03:27:23;;;;;;;0.60;0.60;;;;;;;17.51;53.60;100872.94;5104410;28;20036;-77
2023/07/02 03:29:49;;;;;;;0.10;0.10;;;;;;;17.51;53.87;100867.56;5096498;28;20024;-76
2023/07/02 03:32:15;;;;;;;0.82;0.82;;;;;;;17.48;54.04;100867.72;5097715;28;20028;-76
2023/07/02 03:34:41;;;;;;;0.43;0.43;;;;;;;17.46;53.74;100874.03;5092578;28;20051;-76
2023/07/02 03:37:08;;;;;;;0.17;0.17;;;;;;;17.44;54.00;100873.22;5101882;28;20035;-76
2023/07/02 03:39:34;;;;;;;0.10;0.10;;;;;;;17.42;54.05;100880.47;5094044;28;20081;-78
2023/07/02 03:42:00;;;;;;;0.20;0.20;;;;;;;17.39;54.38;100875.25;5085410;28;20040;-78
2023/07/02 03:44:26;;;;;;;0.85;0.52;;;;;;;17.30;54.62;100875.72;5097347;28;20028;-79
2023/07/02 03:46:54;;;;;;;0.10;0.10;;;;;;;17.29;54.36;100879.31;5098404;28;20043;-79
2023/07/02 03:49:20;;;;;;;0.20;0.20;;;;;;;17.32;54.50;100884.56;5097440;28;20109;-78
2023/07/02 03:51:46;;;;;;;0.20;0.20;;;;;;;17.29;54.42;100896.25;5106077;28;20061;-79
2023/07/02 03:54:12;;;;;;;1.55;1.45;;;;;;;17.29;54.72;100890.03;5094541;28;20435;-78
2023/07/02 03:56:38;;;;;;;0.20;0.20;;;;;;;17.27;54.84;100892.78;5097104;28;20060;-79
2023/07/02 03:59:04;;;;;;;0.10;0.10;;;;;;;17.30;54.58;100891.78;5092117;28;20031;-78
2023/07/02 04:01:30;;;;;;;0.10;0.10;;;;;;;17.24;54.65;100892.06;5093900;28;20040;-79
2023/07/02 04:03:56;;;;;;;0.85;0.85;;;;;;;17.27;54.81;100900.81;5096163;28;20059;-79
2023/07/02 04:06:23;;;;;;;1.55;0.38;;;;;;;17.24;54.66;100898.28;5091272;28;20021;-78
2023/07/02 04:08:49;;;;;;;0.10;0.10;;;;;;;17.23;54.66;100904.56;5095306;28;20021;-76
2023/07/02 04:11:15;;;;;;;0.38;0.38;;;;;;;17.22;54.99;100905.53;5096580;28;20040;-76
2023/07/02 04:13:41;;;;;;;0.10;0.10;;;;;;;17.23;54.92;100901.03;5100543;28;20085;-79
2023/07/02 04:16:08;;;;;;;0.28;0.28;;;;;;;17.16;54.94;100904.94;5088962;28;20233;-78
2023/07/02 04:18:34;;;;;;;0.00;0.00;;;;;;;17.14;54.93;100913.03;5097839;28;20053;-77
2023/07/02 04:21:01;;;;;;;0.20;0.20;;;;;;;17.20;55.20;100912.75;5101117;28;20032;-77
2023/07/02 04:23:27;;;;;;;0.77;0.77;;;;;;;17.16;55.51;100921.00;5106131;28;20093;-79
2023/07/02 04:25:53;;;;;;;1.33;1.25;;;;;;;17.20;55.44;100920.78;5090123;28;20028;-78
2023/07/02 04:28:19;;;;;;;0.73;0.73;;;;;;;17.24;55.40;100925.06;5103628;28;20039;-79
2023/07/02 04:30:49;;;;;;;0.20;0.20;;;;;;;17.29;55.00;100917.66;5093004;28;20298;-78
2023/07/02 04:33:15;;;;;;;0.20;0.20;;;;;;;17.37;55.26;100920.00;5087718;28;20035;-79
2023/07/02 04:35:42;;;;;;;1.42;1.38;;;;;;;17.37;54.89;100917.34;5084655;28;20483;-78
2023/07/02 04:38:09;;;;;;;0.10;0.10;;;;;;;17.43;54.88;100926.88;5084337;28;20024;-77
2023/07/02 04:40:35;;;;;;;0.30;0.30;;;;;;;17.42;54.48;100928.69;5086215;28;20024;-78
2023/07/02 04:43:02;;;;;;;0.20;0.20;;;;;;;17.45;54.18;100923.16;5085386;28;20055;-78
2023/07/02 04:45:31;;;;;;;0.75;0.75;;;;;;;17.46;54.28;100924.06;5084799;28;20023;-77
2023/07/02 04:48:00;;;;;;;0.10;0.10;;;;;;;17.46;54.28;100924.06;5086969;28;20024;-78
2023/07/02 04:50:27;;;;;;;0.20;0.20;;;;;;;17.50;54.12;100936.34;5083826;28;20033;-77
2023/07/02 04:52:53;;;;;;;2.50;2.33;;;;;;;17.56;54.47;100940.56;5093787;28;20043;-78
2023/07/02 04:55:19;;;;;;;0.10;0.10;;;;;;;17.55;54.22;100936.16;5084375;28;20031;-78
2023/07/02 04:57:45;;;;;;;0.40;0.40;;;;;;;17.53;53.67;100943.38;5085273;28;20029;-79
2023/07/02 05:00:12;;;;;;;1.88;1.77;;;;;;;17.59;54.02;100945.75;5092148;28;20044;-78
2023/07/02 05:02:39;;;;;;;0.47;0.47;;;;;;;17.65;53.89;100937.44;5094995;28;20038;-78
2023/07/02 05:05:05;;;;;;;0.10;0.10;;;;;;;17.63;53.56;100941.97;5102266;28;20559;-79
2023/07/02 05:07:31;;;;;;;0.30;0.30;;;;;;;17.74;54.30;100945.00;5100467;28;20032;-79
2023/07/02 05:09:57;;;;;;;0.20;0.20;;;;;;;17.70;53.62;100943.44;5102725;28;20020;-79
2023/07/02 05:12:24;;;;;;;0.10;0.10;;;;;;;17.69;53.60;100943.50;5091782;28;20036;-79
2023/07/02 05:14:50;;;;;;;0.15;0.15;;;;;;;17.71;53.65;100942.50;5098562;28;20029;-79
2023/07/02 05:17:16;;;;;;;2.53;1.75;;;;;;;17.75;53.31;100941.41;5087991;28;20040;-79
2023/07/02 05:19:43;;;;;;;1.00;0.98;;;;;;;17.84;53.77;100949.94;5094155;28;20032;-79
2023/07/02 05:22:10;;;;;;;0.35;0.35;;;;;;;17.81;53.62;100952.75;5100650;28;20817;-79
2023/07/02 05:24:36;;;;;;;0.10;0.10;;;;;;;17.88;53.65;100954.19;5100912;28;20110;-79
2023/07/02 05:27:02;;;;;;;0.10;0.10;;;;;;;17.87;53.78;100955.13;5097262;28;20032;-78
2023/07/02 05:29:28;;;;;;;1.45;1.10;;;;;;;17.84;53.32;100958.84;5090019;28;20096;-79
2023/07/02 05:31:54;;;;;;;0.65;0.65;;;;;;;17.86;52.96;100959.63;5089067;28;20040;-79
2023/07/02 05:34:20;;;;;;;0.70;0.70;;;;;;;17.87;53.03;100963.19;5098703;28;20398;-79
2023/07/02 05:36:47;;;;;;;0.10;0.10;;;;;;;17.91;52.94;100967.47;5095156;28;20024;-79
2023/07/02 05:39:13;;;;;;;0.20;0.20;;;;;;;17.97;53.32;100972.56;5102389;28;20020;-77
2023/07/02 05:41:39;;;;;;;2.67;1.75;;;;;;;18.06;53.48;100966.72;5086042;28;20036;-76
2023/07/02 05:44:05;;;;;;;0.30;0.30;;;;;;;18.06;53.45;100979.28;5089654;28;20059;-76
2023/07/02 05:46:31;;;;;;;1.23;1.23;;;;;;;18.21;53.47;100985.69;5095212;28;20029;-79
2023/07/02 05:48:57;;;;;;;0.65;0.65;;;;;;;18.14;53.00;100973.53;5096670;28;20037;-77
2023/07/02 05:51:24;;;;;;;0.10;0.10;;;;;;;18.31;53.00;100976.25;5085018;28;20030;-78
2023/07/02 05:53:51;;;;;;;0.05;0.05;;;;;;;18.31;52.86;100986.97;5087036;28;20043;-79
2023/07/02 05:56:18;;;;;;;0.22;0.22;;;;;;;18.48;52.93;100985.25;5089513;28;20470;-79
2023/07/02 05:58:45;;;;;;;0.20;0.20;;;;;;;18.41;52.27;100990.91;5106538;28;20095;-79
2023/07/02 06:01:11;;;;;;;0.10;0.10;;;;;;;18.43;51.88;100982.81;5110653;28;20054;-77
2023/07/02 06:03:37;;;;;;;2.63;2.33;;;;;;;18.58;52.02;100999.94;5104023;28;20059;-78
2023/07/02 06:06:03;;;;;;;0.10;0.10;;;;;;;18.50;51.17;100991.41;5087908;28;20024;-79
2023/07/02 06:08:30;;;;;;;1.25;1.00;;;;;;;18.57;51.03;101004.41;5098185;28;20511;-79
2023/07/02 06:10:56;;;;;;;0.10;0.10;;;;;;;18.62;50.95;101008.69;5097219;28;20024;-78
2023/07/02 06:13:22;;;;;;;0.10;0.10;;;;;;;18.49;50.88;101005.75;5089029;28;20033;-79
2023/07/02 06:15:48;;;;;;;0.20;0.20;;;;;;;18.61;51.06;101015.00;5097848;28;20487;-78
2023/07/02 06:18:14;;;;;;;2.03;1.23;;;;;;;18.56;50.92;101017.94;5106410;28;20029;-79
2023/07/02 06:20:40;;;;;;;0.25;0.25;;;;;;;18.61;50.72;101005.13;5087792;28;20055;-78
2023/07/02 06:23:06;;;;;;;0.10;0.10;;;;;;;18.69;51.34;100994.88;5095084;28;20040;-79
2023/07/02 06:25:32;;;;;;;0.70;0.70;;;;;;;18.54;51.15;101003.72;5104663;28;20055;-79
2023/07/02 06:27:59;;;;;;;0.20;0.20;;;;;;;18.54;51.37;101011.75;5092962;28;20030;-78
2023/07/02 06:30:26;;;;;;;0.60;0.60;;;;;;;18.51;51.25;101014.63;5095519;28;20052;-79
2023/07/02 06:32:53;;;;;;;0.20;0.20;;;;;;;18.56;51.04;101012.56;5086813;28;20027;-79
2023/07/02 06:35:19;;;;;;;0.90;0.90;;;;;;;18.59;51.17;101007.03;5088319;28;20021;-79
2023/07/02 06:37:45;;;;;;;0.20;0.20;;;;;;;18.63;51.38;101014.00;5087020;28;20043;-80
2023/07/02 06:40:11;;;;;;;1.42;0.32;;;;;;;18.69;51.08;101012.78;5088493;28;20070;-79
2023/07/02 06:42:38;;;;;;;0.10;0.10;;;;;;;18.74;51.06;101022.34;5118839;28;20054;-78
2023/07/02 06:45:05;;;;;;;0.08;0.08;;;;;;;18.80;50.26;101021.16;5106146;28;20028;-78
2023/07/02 06:47:31;;;;;;;0.15;0.15;;;;;;;18.82;49.71;101021.09;5099883;28;20449;-79
2023/07/02 06:49:57;;;;;;;0.00;0.00;;;;;;;18.74;49.47;101026.84;5102272;28;20099;-79
2023/07/02 06:52:24;;;;;;;0.80;0.63;;;;;;;18.73;48.36;101031.34;5088666;28;20119;-80
2023/07/02 06:54:51;;;;;;;0.10;0.10;;;;;;;18.86;49.09;101028.03;5116632;28;20039;-78
2023/07/02 06:57:17;;;;;;;0.20;0.20;;;;;;;18.81;48.45;101035.47;5095197;28;20081;-80
2023/07/02 06:59:43;;;;;;;0.10;0.10;;;;;;;18.86;47.68;101031.56;5103285;28;20035;-80
2023/07/02 07:02:09;;;;;;;3.63;0.43;;;;;;;18.86;47.63;101044.13;5104603;28;20027;-80
2023/07/02 07:04:35;;;;;;;0.20;0.20;;;;;;;18.91;47.85;101034.91;5093071;28;20024;-80
2023/07/02 07:07:03;;;;;;;0.10;0.10;;;;;;;18.90;47.14;101038.56;5087245;28;20112;-81
2023/07/02 07:09:29;;;;;;;1.08;1.08;;;;;;;18.91;46.62;101037.59;5088374;28;20028;-79
2023/07/02 07:11:56;;;;;;;1.13;0.57;;;;;;;18.92;44.94;101043.84;5090290;28;20066;-79
2023/07/02 07:14:22;;;;;;;0.15;0.15;;;;;;;19.07;45.94;101048.41;5098391;28;20035;-79
2023/07/02 07:16:48;;;;;;;0.30;0.30;;;;;;;19.15;46.34;101053.41;5089099;28;20041;-78
2023/07/02 07:19:15;;;;;;;1.10;1.10;;;;;;;19.13;45.66;101059.78;5086099;28;20025;-79
2023/07/02 07:21:42;;;;;;;0.08;0.08;;;;;;;19.13;45.47;101065.16;5094005;28;20047;-80
2023/07/02 07:24:08;;;;;;;0.10;0.10;;;;;;;19.20;45.92;101061.19;5086609;28;20549;-79
2023/07/02 07:26:36;;;;;;;0.73;0.25;;;;;;;19.12;45.35;101066.13;5095508;28;20490;-79
2023/07/02 07:29:03;;;;;;;0.08;0.08;;;;;;;19.18;46.12;101066.66;5094505;28;20028;-80
2023/07/02 07:31:29;;;;;;;0.43;0.43;;;;;;;19.31;46.49;101071.38;5096946;28;20032;-79
2023/07/02 07:33:55;;;;;;;0.70;0.70;;;;;;;19.39;45.90;101078.09;5090729;28;20084;-79
2023/07/02 07:36:21;;;;;;;0.10;0.10;;;;;;;19.46;46.27;101067.00;5088832;28;20398;-78
2023/07/02 07:38:47;;;;;;;1.35;0.63;;;;;;;19.39;45.89;101079.91;5089868;28;20107;-79
2023/07/02 07:41:13;;;;;;;0.20;0.20;;;;;;;19.45;45.62;101076.00;5092031;28;20028;-79
2023/07/02 07:43:39;;;;;;;0.10;0.10;;;;;;;19.49;45.54;101064.13;5097431;28;20028;-79
2023/07/02 07:46:06;;;;;;;0.32;0.32;;;;;;;19.61;46.14;101073.38;5097004;28;20024;-80
2023/07/02 07:48:32;;;;;;;0.10;0.10;;;;;;;19.55;45.27;101074.56;5094963;28;20020;-80
2023/07/02 07:50:58;;;;;;;0.40;0.40;;;;;;;19.53;44.50;101090.78;5097561;28;20020;-79
2023/07/02 07:53:25;;;;;;;0.60;0.60;;;;;;;19.62;43.77;101089.41;5093771;28;20088;-81
2023/07/02 07:55:51;;;;;;;0.20;0.20;;;;;;;19.56;43.61;101109.44;5095358;28;20025;-80
2023/07/02 07:58:17;;;;;;;0.17;0.17;;;;;;;19.54;43.37;101100.56;5098110;28;20548;-81
2023/07/02 08:00:43;;;;;;;1.65;1.38;;;;;;;19.60;42.53;101094.00;5088486;28;20040;-79
2023/07/02 08:03:10;;;;;;;0.10;0.10;;;;;;;19.49;42.73;101088.31;5088083;28;20032;-81
2023/07/02 08:05:36;;;;;;;0.22;0.22;;;;;;;19.54;43.18;101097.88;5090115;28;20103;-79
2023/07/02 08:08:02;;;;;;;2.00;0.90;;;;;;;19.66;43.67;101090.97;5091623;28;20046;-81
2023/07/02 08:10:28;;;;;;;1.30;1.20;;;;;;;19.65;42.09;101097.31;5092147;28;20032;-78
2023/07/02 08:12:55;;;;;;;0.20;0.20;;;;;;;19.85;42.25;101088.19;5096007;28;20032;-79
2023/07/02 08:15:21;;;;;;;0.15;0.15;;;;;;;19.71;42.22;101102.38;5092291;28;20043;-77
2023/07/02 08:17:47;;;;;;;0.10;0.10;;;;;;;19.83;43.20;101091.91;5090566;28;20044;-80
2023/07/02 08:20:13;;;;;;;0.00;0.00;;;;;;;19.75;43.06;101095.00;5087384;28;20036;-77
2023/07/02 08:22:40;;;;;;;1.17;0.70;;;;;;;19.85;41.70;101095.38;5104360;28;20552;-79
2023/07/02 08:25:07;;;;;;;0.10;0.10;;;;;;;19.92;41.82;101091.41;5105022;28;20070;-79
2023/07/02 08:27:33;;;;;;;0.55;0.55;;;;;;;20.07;42.22;101096.88;5104545;28;20036;-79
2023/07/02 08:29:59;;;;;;;0.20;0.20;;;;;;;20.06;42.06;101109.44;5101243;28;20391;-78
2023/07/02 08:32:26;;;;;;;0.77;0.77;;;;;;;20.22;41.85;101093.31;5104939;28;20032;-79
2023/07/02 08:34:52;;;;;;;0.10;0.10;;;;;;;20.26;41.13;101094.91;5104703;28;20028;-78
2023/07/02 08:37:20;;;;;;;0.10;0.10;;;;;;;20.29;40.50;101105.47;5092903;28;20103;-79
2023/07/02 08:39:49;;;;;;;0.10;0.10;;;;;;;20.42;40.26;101102.94;5104553;28;20079;-80
2023/07/02 08:42:15;;;;;;;0.63;0.63;;;;;;;20.28;39.18;101103.72;5105337;28;20077;-79
2023/07/02 08:44:45;;;;;;;0.10;0.10;;;;;;;20.50;38.91;101124.06;5099046;28;20548;-78
2023/07/02 08:47:11;;;;;;;0.20;0.20;;;;;;;20.63;39.67;101114.28;5104472;28;20107;-77
2023/07/02 08:49:37;;;;;;;2.40;1.00;;;;;;;20.65;40.05;101107.00;5106154;28;20043;-78
2023/07/02 08:52:03;;;;;;;0.65;0.20;;;;;;;20.66;39.23;101115.94;5096822;28;20032;-79
2023/07/02 08:54:30;;;;;;;0.10;0.10;;;;;;;20.93;40.43;101109.94;5101423;28;20028;-79
2023/07/02 08:56:56;;;;;;;0.20;0.20;;;;;;;21.01;40.14;101108.50;5102873;28;20024;-77
2023/07/02 08:59:22;;;;;;;0.10;0.10;;;;;;;21.13;38.94;101124.91;5097620;28;20081;-77
2023/07/02 09:01:50;;;;;;;0.77;0.77;;;;;;;21.12;39.47;101123.16;5097498;28;20096;-77
2023/07/02 09:04:19;;;;;;;0.10;0.10;;;;;;;21.15;38.70;101109.53;5102898;28;20036;-78
2023/07/02 09:06:46;;;;;;;0.55;0.55;;;;;;;21.19;38.90;101110.19;5099024;28;20103;-78
2023/07/02 09:09:12;;;;;;;0.20;0.20;;;;;;;21.27;38.83;101114.16;5094378;28;20080;-80
2023/07/02 09:11:48;;;;;;;0.47;0.47;;;;;;;21.18;38.29;101114.69;5096835;28;20035;-78
2023/07/02 09:17:05;;;;;;;0.00;0.00;;;;;;;21.18;38.43;101128.19;5079706;28;20860;-78
2023/07/02 09:19:32;;;;;;;0.85;0.85;;;;;;;21.16;38.14;101122.03;5059828;28;20033;-79
2023/07/02 09:22:00;;;;;;;0.28;0.28;;;;;;;21.19;38.46;101121.84;5057652;28;20112;-79
2023/07/02 09:24:30;;;;;;;0.10;0.10;;;;;;;21.16;38.01;101122.03;5060331;28;20026;-79
2023/07/02 09:26:59;;;;;;;0.10;0.10;;;;;;;21.16;38.22;101128.28;5059072;28;20033;-79
2023/07/02 09:29:31;;;;;;;0.10;0.10;;;;;;;21.35;37.63;101116.38;5060142;28;20373;-79
2023/07/02 09:32:00;;;;;;;0.65;0.65;;;;;;;21.57;37.85;101118.66;5060128;28;20029;-78
2023/07/02 09:37:06;;;;;;;0.10;0.10;;;;;;;21.56;35.81;101119.63;5071315;28;20418;-79
2023/07/02 09:39:34;;;;;;;2.13;0.90;;;;;;;21.85;35.25;101105.28;5059997;28;20039;-79
2023/07/02 09:42:06;;;;;;;0.10;0.10;;;;;;;21.74;35.10;101125.69;5060260;28;20306;-78
2023/07/02 09:44:33;;;;;;;11.60;2.85;;;;;;;21.98;35.68;101115.19;5060004;28;20021;-78
2023/07/02 09:47:05;;;;;;;0.40;0.32;;;;;;;21.94;35.43;101108.25;5059884;28;20104;-79
2023/07/02 09:49:34;;;;;;;0.37;0.37;;;;;;;22.05;35.89;101120.19;5059642;28;20065;-79
2023/07/02 09:52:04;;;;;;;0.10;0.10;;;;;;;21.96;33.59;101121.63;5059442;28;20463;-79
2023/07/02 09:54:31;;;;;;;0.28;0.22;;;;;;;22.16;35.45;101106.88;5060146;28;20043;-80
2023/07/02 09:56:58;;;;;;;0.20;0.20;;;;;;;22.20;34.15;101108.38;5058492;28;20392;-78
2023/07/02 09:59:24;;;;;;;0.63;0.63;;;;;;;22.19;33.69;101109.34;5058983;28;20036;-78
2023/07/02 10:01:52;;;;;;;0.30;0.30;;;;;;;22.05;33.09;101117.50;5054240;28;20036;-79
2023/07/02 10:04:23;;;;;;;0.10;0.10;;;;;;;22.06;34.58;101121.94;5053269;28;20040;-80
2023/07/02 10:06:57;;;;;;;0.10;0.10;;;;;;;22.30;35.72;101120.31;5050837;28;20048;-85
2023/07/02 10:14:54;;;;;;;0.20;0.20;;;;;;;22.51;33.43;101133.41;5123871;27;20359;-79
2023/07/02 10:20:07;;;;;;;0.30;0.30;;;;;;;22.55;32.65;101134.94;5113717;27;20386;-78
2023/07/02 10:22:52;;;;;;;0.10;0.10;;;;;;;22.58;33.79;101126.66;5097742;28;20089;-77
2023/07/02 10:25:40;;;;;;;0.30;0.30;;;;;;;22.51;33.78;101133.41;5090797;28;20036;-82
2023/07/02 10:28:24;;;;;;;1.15;1.08;;;;;;;22.57;33.72;101138.41;5093161;28;20078;-80
2023/07/02 10:30:52;;;;;;;0.20;0.20;;;;;;;22.47;34.00;101137.28;5089847;28;20032;-81
2023/07/02 10:33:19;;;;;;;0.10;0.10;;;;;;;22.23;33.40;101137.91;5095512;28;20039;-79
2023/07/02 10:35:49;;;;;;;0.93;0.77;;;;;;;22.43;33.05;101149.25;5081026;28;20024;-81
2023/07/02 10:38:23;;;;;;;0.10;0.10;;;;;;;22.56;32.50;101147.47;5080744;28;20024;-83
2023/07/02 10:40:58;;;;;;;0.10;0.10;;;;;;;22.76;33.30;101142.59;5090723;28;20115;-80
2023/07/02 10:43:28;;;;;;;0.10;0.10;;;;;;;22.87;33.52;101141.88;5084442;28;20127;-82
2023/07/02 10:45:55;;;;;;;0.10;0.10;;;;;;;22.85;31.95;101146.50;5097406;28;20043;-80
2023/07/02 10:48:21;;;;;;;0.10;0.10;;;;;;;22.92;33.53;101143.28;5099052;28;20039;-80
2023/07/02 10:50:47;;;;;;;0.00;0.00;;;;;;;22.91;31.37;101141.53;5080614;28;20037;-80
2023/07/02 10:53:18;;;;;;;1.30;0.85;;;;;;;22.94;31.52;101138.66;5090844;28;20086;-81
2023/07/02 10:55:45;;;;;;;0.10;0.10;;;;;;;23.04;31.60;101141.59;5085938;28;20036;-81
2023/07/02 10:58:12;;;;;;;0.28;0.28;;;;;;;23.25;32.01;101144.72;5089168;28;20107;-80
2023/07/02 11:03:24;;;;;;;0.88;0.88;;;;;;;23.34;31.26;101124.28;5129190;27;20418;-84
2023/07/02 11:05:51;;;;;;;0.38;0.28;;;;;;;23.31;31.75;101145.25;5108444;28;20032;-83
2023/07/02 11:08:18;;;;;;;0.30;0.30;;;;;;;23.49;32.07;101162.00;5110663;28;20081;-83
2023/07/02 11:10:44;;;;;;;0.05;0.05;;;;;;;23.29;31.24;101147.19;5112953;28;20230;-84
2023/07/02 11:13:12;;;;;;;0.10;0.10;;;;;;;23.12;32.03;101149.19;5100368;28;20052;-80
2023/07/02 11:15:41;;;;;;;4.30;0.55;;;;;;;23.05;32.05;101167.66;5094461;28;21315;-82
2023/07/02 11:18:17;;;;;;;0.68;0.60;;;;;;;22.86;30.56;101149.09;5109095;28;20024;-82
2023/07/02 11:20:44;;;;;;;0.10;0.10;;;;;;;22.88;32.06;101157.97;5114232;28;20028;-81
2023/07/02 11:23:26;;;;;;;0.10;0.10;;;;;;;22.79;32.32;101158.56;5121140;28;20024;-78
2023/07/02 11:26:00;;;;;;;0.10;0.10;;;;;;;22.82;32.17;101155.69;5121390;28;20027;-78
2023/07/02 11:28:28;;;;;;;0.25;0.25;;;;;;;22.89;32.14;101159.72;5111347;28;20490;-79
2023/07/02 11:30:55;;;;;;;0.65;0.65;;;;;;;23.00;33.19;101163.53;5120293;28;20088;-80
2023/07/02 11:33:33;;;;;;;0.10;0.10;;;;;;;23.18;30.50;101170.41;5117026;28;20047;-79
2023/07/02 11:35:59;;;;;;;0.10;0.10;;;;;;;23.02;29.74;101188.63;5114651;28;20049;-80
2023/07/02 11:38:25;;;;;;;0.35;0.35;;;;;;;23.43;30.32;101145.25;5115294;28;20028;-80
2023/07/02 11:40:52;;;;;;;0.43;0.43;;;;;;;23.67;30.78;101155.31;5124840;28;20020;-77